sensor_id;sensor_type;location;lat;lon;timestamp;P1;durP1;ratioP1;P2;durP2;ratioP2
45940;SDS011;31858;46.008;8.978;2023-03-01T00:02:01;26.90;;;20.95;;
45940;SDS011;31858;46.008;8.978;2023-03-01T00:12:06;28.73;;;21.25;;
45940;SDS011;31858;46.008;8.978;2023-03-01T00:22:07;32.40;;;24.38;;
45940;SDS011;31858;46.008;8.978;2023-03-01T00:32:10;32.50;;;23.33;;
45940;SDS011;31858;46.008;8.978;2023-03-01T00:42:12;33.67;;;24.15;;
45940;SDS011;31858;46.008;8.978;2023-03-01T00:52:15;30.45;;;23.55;;
45940;SDS011;31858;46.008;8.978;2023-03-01T01:02:16;33.83;;;24.42;;
45940;SDS011;31858;46.008;8.978;2023-03-01T01:12:19;32.33;;;24.52;;
45940;SDS011;31858;46.008;8.978;2023-03-01T01:22:21;32.75;;;22.08;;
45940;SDS011;31858;46.008;8.978;2023-03-01T01:32:24;29.23;;;22.30;;
45940;SDS011;31858;46.008;8.978;2023-03-01T01:42:25;29.20;;;21.15;;
45940;SDS011;31858;46.008;8.978;2023-03-01T01:52:31;26.15;;;21.23;;
45940;SDS011;31858;46.008;8.978;2023-03-01T02:02:35;29.70;;;21.63;;
45940;SDS011;31858;46.008;8.978;2023-03-01T02:12:39;29.63;;;21.60;;
45940;SDS011;31858;46.008;8.978;2023-03-01T02:22:40;29.33;;;21.92;;
45940;SDS011;31858;46.008;8.978;2023-03-01T02:32:47;31.48;;;21.42;;
45940;SDS011;31858;46.008;8.978;2023-03-01T02:42:50;29.55;;;22.40;;
45940;SDS011;31858;46.008;8.978;2023-03-01T02:52:57;32.25;;;21.95;;
45940;SDS011;31858;46.008;8.978;2023-03-01T03:03:06;28.53;;;21.37;;
45940;SDS011;31858;46.008;8.978;2023-03-01T03:13:10;24.25;;;19.27;;
45940;SDS011;31858;46.008;8.978;2023-03-01T03:23:14;22.02;;;15.90;;
45940;SDS011;31858;46.008;8.978;2023-03-01T03:33:17;27.77;;;20.13;;
45940;SDS011;31858;46.008;8.978;2023-03-01T03:43:19;23.83;;;16.65;;
45940;SDS011;31858;46.008;8.978;2023-03-01T03:53:25;21.15;;;15.32;;
45940;SDS011;31858;46.008;8.978;2023-03-01T04:03:28;22.08;;;16.38;;
45940;SDS011;31858;46.008;8.978;2023-03-01T04:13:33;20.13;;;13.65;;
45940;SDS011;31858;46.008;8.978;2023-03-01T04:23:34;15.10;;;11.75;;
45940;SDS011;31858;46.008;8.978;2023-03-01T04:33:37;16.30;;;13.20;;
45940;SDS011;31858;46.008;8.978;2023-03-01T04:43:39;13.27;;;10.00;;
45940;SDS011;31858;46.008;8.978;2023-03-01T04:53:42;23.17;;;14.45;;
45940;SDS011;31858;46.008;8.978;2023-03-01T05:03:45;17.30;;;12.13;;
45940;SDS011;31858;46.008;8.978;2023-03-01T05:13:49;16.73;;;12.00;;
45940;SDS011;31858;46.008;8.978;2023-03-01T05:23:54;11.00;;;9.10;;
45940;SDS011;31858;46.008;8.978;2023-03-01T05:33:57;12.00;;;8.57;;
45940;SDS011;31858;46.008;8.978;2023-03-01T05:43:59;16.85;;;12.13;;
45940;SDS011;31858;46.008;8.978;2023-03-01T05:54:02;17.02;;;12.32;;
45940;SDS011;31858;46.008;8.978;2023-03-01T06:04:05;18.33;;;13.13;;
45940;SDS011;31858;46.008;8.978;2023-03-01T06:14:08;23.00;;;16.38;;
45940;SDS011;31858;46.008;8.978;2023-03-01T06:24:12;20.55;;;14.73;;
45940;SDS011;31858;46.008;8.978;2023-03-01T06:34:15;14.35;;;10.27;;
45940;SDS011;31858;46.008;8.978;2023-03-01T06:44:17;12.55;;;9.32;;
45940;SDS011;31858;46.008;8.978;2023-03-01T06:54:20;17.88;;;12.93;;
45940;SDS011;31858;46.008;8.978;2023-03-01T07:04:22;19.20;;;14.55;;
45940;SDS011;31858;46.008;8.978;2023-03-01T07:14:25;19.83;;;14.15;;
45940;SDS011;31858;46.008;8.978;2023-03-01T07:24:27;17.13;;;14.23;;
45940;SDS011;31858;46.008;8.978;2023-03-01T07:34:30;19.65;;;14.55;;
45940;SDS011;31858;46.008;8.978;2023-03-01T07:44:32;16.27;;;11.80;;
45940;SDS011;31858;46.008;8.978;2023-03-01T07:54:35;21.08;;;12.60;;
45940;SDS011;31858;46.008;8.978;2023-03-01T08:04:37;16.35;;;12.35;;
45940;SDS011;31858;46.008;8.978;2023-03-01T08:14:40;20.25;;;14.27;;
45940;SDS011;31858;46.008;8.978;2023-03-01T08:24:41;22.25;;;17.30;;
45940;SDS011;31858;46.008;8.978;2023-03-01T08:34:47;30.25;;;22.20;;
45940;SDS011;31858;46.008;8.978;2023-03-01T08:44:48;30.63;;;21.45;;
45940;SDS011;31858;46.008;8.978;2023-03-01T08:54:51;28.58;;;21.30;;
45940;SDS011;31858;46.008;8.978;2023-03-01T09:04:53;29.27;;;20.60;;
45940;SDS011;31858;46.008;8.978;2023-03-01T09:14:56;24.23;;;18.08;;
45940;SDS011;31858;46.008;8.978;2023-03-01T09:24:57;24.63;;;19.42;;
45940;SDS011;31858;46.008;8.978;2023-03-01T09:35:00;28.25;;;19.27;;
45940;SDS011;31858;46.008;8.978;2023-03-01T09:45:05;23.60;;;18.63;;
45940;SDS011;31858;46.008;8.978;2023-03-01T09:55:15;23.08;;;18.73;;
45940;SDS011;31858;46.008;8.978;2023-03-01T10:05:22;31.63;;;21.35;;
45940;SDS011;31858;46.008;8.978;2023-03-01T10:15:34;29.90;;;22.63;;
45940;SDS011;31858;46.008;8.978;2023-03-01T10:25:44;26.73;;;18.85;;
45940;SDS011;31858;46.008;8.978;2023-03-01T10:35:53;25.38;;;20.40;;
45940;SDS011;31858;46.008;8.978;2023-03-01T10:45:54;26.02;;;19.90;;
45940;SDS011;31858;46.008;8.978;2023-03-01T10:55:58;26.80;;;20.20;;
45940;SDS011;31858;46.008;8.978;2023-03-01T11:06:03;24.00;;;17.90;;
45940;SDS011;31858;46.008;8.978;2023-03-01T11:16:10;18.80;;;14.82;;
45940;SDS011;31858;46.008;8.978;2023-03-01T11:26:13;16.00;;;12.18;;
45940;SDS011;31858;46.008;8.978;2023-03-01T11:36:22;19.58;;;15.10;;
45940;SDS011;31858;46.008;8.978;2023-03-01T11:46:34;21.80;;;16.23;;
45940;SDS011;31858;46.008;8.978;2023-03-01T11:56:50;24.08;;;17.83;;
45940;SDS011;31858;46.008;8.978;2023-03-01T12:06:57;18.77;;;15.27;;
45940;SDS011;31858;46.008;8.978;2023-03-01T12:17:06;18.35;;;14.05;;
45940;SDS011;31858;46.008;8.978;2023-03-01T12:27:20;17.05;;;14.57;;
45940;SDS011;31858;46.008;8.978;2023-03-01T12:37:41;17.40;;;12.35;;
45940;SDS011;31858;46.008;8.978;2023-03-01T12:47:56;19.88;;;14.45;;
45940;SDS011;31858;46.008;8.978;2023-03-01T12:58:07;20.48;;;17.23;;
45940;SDS011;31858;46.008;8.978;2023-03-01T13:08:22;20.80;;;16.17;;
45940;SDS011;31858;46.008;8.978;2023-03-01T13:18:34;17.83;;;14.25;;
45940;SDS011;31858;46.008;8.978;2023-03-01T13:28:40;18.00;;;14.90;;
45940;SDS011;31858;46.008;8.978;2023-03-01T13:38:54;22.42;;;17.75;;
45940;SDS011;31858;46.008;8.978;2023-03-01T13:48:58;31.08;;;22.70;;
45940;SDS011;31858;46.008;8.978;2023-03-01T13:59:01;27.35;;;21.00;;
45940;SDS011;31858;46.008;8.978;2023-03-01T14:09:06;27.15;;;22.33;;
45940;SDS011;31858;46.008;8.978;2023-03-01T14:19:18;26.75;;;21.17;;
45940;SDS011;31858;46.008;8.978;2023-03-01T14:29:26;29.35;;;22.27;;
45940;SDS011;31858;46.008;8.978;2023-03-01T14:39:31;28.65;;;22.27;;
45940;SDS011;31858;46.008;8.978;2023-03-01T14:49:33;31.92;;;22.70;;
45940;SDS011;31858;46.008;8.978;2023-03-01T14:59:38;26.15;;;20.27;;
45940;SDS011;31858;46.008;8.978;2023-03-01T15:09:40;25.85;;;20.33;;
45940;SDS011;31858;46.008;8.978;2023-03-01T15:19:43;28.63;;;21.02;;
45940;SDS011;31858;46.008;8.978;2023-03-01T15:29:48;27.48;;;21.20;;
45940;SDS011;31858;46.008;8.978;2023-03-01T15:39:54;28.13;;;20.67;;
45940;SDS011;31858;46.008;8.978;2023-03-01T15:49:56;29.60;;;20.83;;
45940;SDS011;31858;46.008;8.978;2023-03-01T16:00:00;27.27;;;19.55;;
45940;SDS011;31858;46.008;8.978;2023-03-01T16:10:11;28.10;;;20.20;;
45940;SDS011;31858;46.008;8.978;2023-03-01T16:20:14;28.17;;;20.05;;
45940;SDS011;31858;46.008;8.978;2023-03-01T16:30:18;24.52;;;17.27;;
45940;SDS011;31858;46.008;8.978;2023-03-01T16:40:23;24.42;;;17.90;;
45940;SDS011;31858;46.008;8.978;2023-03-01T16:50:27;23.73;;;17.13;;
45940;SDS011;31858;46.008;8.978;2023-03-01T17:00:30;24.20;;;18.38;;
45940;SDS011;31858;46.008;8.978;2023-03-01T17:10:32;26.00;;;19.23;;
45940;SDS011;31858;46.008;8.978;2023-03-01T17:20:35;26.00;;;20.02;;
45940;SDS011;31858;46.008;8.978;2023-03-01T17:30:38;31.98;;;20.58;;
45940;SDS011;31858;46.008;8.978;2023-03-01T17:40:43;29.17;;;21.35;;
45940;SDS011;31858;46.008;8.978;2023-03-01T17:50:46;33.97;;;23.02;;
45940;SDS011;31858;46.008;8.978;2023-03-01T18:00:49;31.83;;;22.85;;
45940;SDS011;31858;46.008;8.978;2023-03-01T18:10:56;33.90;;;23.42;;
45940;SDS011;31858;46.008;8.978;2023-03-01T18:21:00;35.00;;;22.80;;
45940;SDS011;31858;46.008;8.978;2023-03-01T18:31:03;32.60;;;23.75;;
45940;SDS011;31858;46.008;8.978;2023-03-01T18:41:08;37.60;;;26.17;;
45940;SDS011;31858;46.008;8.978;2023-03-01T18:51:11;38.15;;;27.52;;
45940;SDS011;31858;46.008;8.978;2023-03-01T19:01:16;43.47;;;27.42;;
45940;SDS011;31858;46.008;8.978;2023-03-01T19:11:19;43.20;;;28.27;;
45940;SDS011;31858;46.008;8.978;2023-03-01T19:21:22;44.75;;;30.42;;
45940;SDS011;31858;46.008;8.978;2023-03-01T19:31:25;42.95;;;29.40;;
45940;SDS011;31858;46.008;8.978;2023-03-01T19:41:29;45.03;;;31.83;;
45940;SDS011;31858;46.008;8.978;2023-03-01T19:51:31;44.05;;;30.15;;
45940;SDS011;31858;46.008;8.978;2023-03-01T20:01:36;42.70;;;30.05;;
45940;SDS011;31858;46.008;8.978;2023-03-01T20:11:41;43.70;;;27.00;;
45940;SDS011;31858;46.008;8.978;2023-03-01T20:21:44;37.38;;;26.88;;
45940;SDS011;31858;46.008;8.978;2023-03-01T20:31:45;36.10;;;26.35;;
45940;SDS011;31858;46.008;8.978;2023-03-01T20:41:48;37.47;;;26.17;;
45940;SDS011;31858;46.008;8.978;2023-03-01T20:51:50;43.85;;;28.20;;
45940;SDS011;31858;46.008;8.978;2023-03-01T21:01:53;37.83;;;27.48;;
45940;SDS011;31858;46.008;8.978;2023-03-01T21:11:54;37.42;;;26.80;;
45940;SDS011;31858;46.008;8.978;2023-03-01T21:21:58;38.50;;;28.45;;
45940;SDS011;31858;46.008;8.978;2023-03-01T21:31:59;36.20;;;25.67;;
45940;SDS011;31858;46.008;8.978;2023-03-01T21:42:03;38.08;;;28.05;;
45940;SDS011;31858;46.008;8.978;2023-03-01T21:52:05;38.63;;;26.95;;
45940;SDS011;31858;46.008;8.978;2023-03-01T22:02:08;38.17;;;27.73;;
45940;SDS011;31858;46.008;8.978;2023-03-01T22:12:11;36.08;;;25.92;;
45940;SDS011;31858;46.008;8.978;2023-03-01T22:22:14;39.55;;;27.08;;
45940;SDS011;31858;46.008;8.978;2023-03-01T22:32:15;38.20;;;27.15;;
45940;SDS011;31858;46.008;8.978;2023-03-01T22:42:18;39.88;;;28.13;;
45940;SDS011;31858;46.008;8.978;2023-03-01T22:52:21;40.35;;;28.25;;
45940;SDS011;31858;46.008;8.978;2023-03-01T23:02:24;41.08;;;28.48;;
45940;SDS011;31858;46.008;8.978;2023-03-01T23:12:26;44.90;;;30.67;;
45940;SDS011;31858;46.008;8.978;2023-03-01T23:22:30;44.58;;;29.08;;
45940;SDS011;31858;46.008;8.978;2023-03-01T23:32:31;44.50;;;30.42;;
45940;SDS011;31858;46.008;8.978;2023-03-01T23:42:38;47.35;;;30.77;;
45940;SDS011;31858;46.008;8.978;2023-03-01T23:52:40;46.15;;;31.15;;
